Uacc Ibn Al Haitham — 9HVB9 — position and weather

sailwx.info

Track history (hours):
 
Tides and Currents Weather Stations Pressure Air Temp Water Temp Dewpoint Dewpoint Depression Visibility Wind Speed Wind Dir Waves Ship Positions

Uacc Ibn Al Haitham

Last reported at 2017-Nov-18 16:39 UTC. Time now 2017-Nov-20 12:11 UTC.
Position N 36°00' W 005°15'.

Length 228 m; draft 12.9 m.

Type: Tanker. MMSI: 249580000.

Date/timePositionNaut miles runAvg speedWind from/ knotsBaromVisibWave heightAir tempDewpointWater temp
2017-Nov-18 16:39N 36°00' W 005°15'212.5
2017-Nov-18 16:30N 35°60' W 005°18'712.4
2017-Nov-18 15:56N 35°58' W 005°26'18211.1
2017-Nov-17 23:35N 36°28' W 009°09'211.3
2017-Nov-17 23:27N 36°28' W 009°11'511.3
2017-Nov-17 23:00N 36°29' W 009°17'1211.0
2017-Nov-17 21:55N 36°37' W 009°28'3211.2
2017-Nov-17 19:02N 37°07' W 009°44'411.6
2017-Nov-17 18:40N 37°11' W 009°45'1111.7
2017-Nov-17 17:41N 37°22' W 009°48'212.0
2017-Nov-17 17:30N 37°24' W 009°49'612.1
2017-Nov-17 17:00N 37°30' W 009°51'611.8
2017-Nov-17 16:30N 37°36' W 009°53'611.7
2017-Nov-17 15:58N 37°42' W 009°54'712.0
2017-Nov-17 15:23N 37°49' W 009°56'511.7
2017-Nov-17 14:58N 37°53' W 009°58'511.6
2017-Nov-17 14:30N 37°59' W 009°60'611.8
2017-Nov-17 14:00N 38°04' W 010°01'611.7
2017-Nov-17 13:30N 38°10' W 010°03'5211.5
2017-Nov-17 08:56N 39°02' W 010°12'1411.8
2017-Nov-17 07:44N 39°16' W 010°13'  
2017-Nov-14 17:05N 49°49' W 003°26'710.1
2017-Nov-14 16:23N 49°53' W 003°17'4 9.9
2017-Nov-14 16:00N 49°55' W 003°12'5 9.9
2017-Nov-14 15:30N 49°57' W 003°05'5 9.8
2017-Nov-14 15:00N 49°59' W 002°58'1010.4
2017-Nov-14 14:05N 50°02' W 002°44'210.9
2017-Nov-14 13:56N 50°02' W 002°41'9511.8
2017-Nov-14 05:53N 50°28' W 000°18'5 9.4
2017-Nov-14 05:22N 50°29' W 000°11'4 9.5
2017-Nov-14 04:54N 50°30' W 000°04'4 9.6
2017-Nov-14 04:30N 50°31' E 000°01'5 9.9
2017-Nov-14 04:00N 50°32' E 000°09'510.3
2017-Nov-14 03:30N 50°34' E 000°17'610.9
2017-Nov-14 02:59N 50°35' E 000°25'611.4
2017-Nov-14 02:30N 50°37' E 000°34'611.8
2017-Nov-14 02:00N 50°40' E 000°42'612.0
2017-Nov-14 01:30N 50°43' E 000°50'612.0
2017-Nov-14 01:00N 50°46' E 000°58'611.9
2017-Nov-14 00:30N 50°50' E 001°04'1311.4
2017-Nov-13 23:20N 50°60' E 001°19'410.6
2017-Nov-13 23:00N 51°02' E 001°23'510.3
2017-Nov-13 22:30N 51°05' E 001°30'5 9.6
2017-Nov-13 22:00N 51°08' E 001°35'104 5.2
2017-Nov-13 01:52N 51°16' E 004°21'0 0.0
2017-Nov-13 01:28N 51°16' E 004°21'0 0.0
2017-Nov-13 00:58N 51°16' E 004°21'0 0.0
2017-Nov-13 00:28N 51°16' E 004°21'0 0.0
2017-Nov-12 23:28N 51°16' E 004°21'0 0.0
2017-Nov-12 22:58N 51°16' E 004°21'0 0.0
2017-Nov-12 22:28N 51°16' E 004°21'0 0.0
2017-Nov-12 21:55N 51°16' E 004°21'0 0.0
2017-Nov-12 21:19N 51°16' E 004°21'0 0.0
2017-Nov-12 20:58N 51°16' E 004°21'0 0.0
2017-Nov-12 20:19N 51°16' E 004°21'0 0.0
2017-Nov-12 19:55N 51°16' E 004°21'0 0.0
2017-Nov-12 19:25N 51°16' E 004°21'0 0.0
2017-Nov-12 18:52N 51°16' E 004°21'0 0.0
2017-Nov-12 18:22N 51°16' E 004°21'0 0.0
2017-Nov-12 17:49N 51°16' E 004°21'0 0.0
2017-Nov-12 17:28N 51°16' E 004°21'0 0.0
2017-Nov-12 16:28N 51°16' E 004°21'0 0.0
2017-Nov-12 15:58N 51°16' E 004°21'0 0.0
2017-Nov-12 15:28N 51°16' E 004°21'0 0.0
2017-Nov-12 14:40N 51°16' E 004°21'0 0.0
2017-Nov-12 14:13N 51°16' E 004°21'0 0.0
2017-Nov-12 13:49N 51°16' E 004°21'0 0.0
2017-Nov-12 13:25N 51°16' E 004°21'0 0.0
2017-Nov-12 12:25N 51°16' E 004°21'0 0.0
2017-Nov-12 11:43N 51°16' E 004°21'0 0.0
2017-Nov-12 11:28N 51°16' E 004°21'0 0.0
2017-Nov-12 10:55N 51°16' E 004°21'0 0.0
2017-Nov-12 10:19N 51°16' E 004°21'0 0.0
2017-Nov-12 09:52N 51°16' E 004°21'0 0.0
2017-Nov-12 09:28N 51°16' E 004°21'0 0.0
2017-Nov-12 08:40N 51°16' E 004°21'0 0.0
2017-Nov-12 08:28N 51°16' E 004°21'0 0.0
2017-Nov-12 07:55N 51°16' E 004°21'0 0.0
2017-Nov-12 07:19N 51°16' E 004°21'0 0.0
2017-Nov-12 06:55N 51°16' E 004°21'0 0.0
2017-Nov-12 06:25N 51°16' E 004°21'0 0.0
2017-Nov-12 05:46N 51°16' E 004°21'0 0.0
2017-Nov-12 05:25N 51°16' E 004°21'0 0.0
2017-Nov-12 04:58N 51°16' E 004°21'0 0.0
2017-Nov-12 04:25N 51°16' E 004°21'0 0.0
2017-Nov-12 03:55N 51°16' E 004°21'0 0.0
2017-Nov-12 03:25N 51°16' E 004°21'0 0.0
2017-Nov-12 02:52N 51°16' E 004°21'0 0.0
2017-Nov-12 02:13N 51°16' E 004°21'0 0.0
2017-Nov-12 01:55N 51°16' E 004°21'0 0.0
2017-Nov-12 01:28N 51°16' E 004°21'0 0.0
2017-Nov-12 00:58N 51°16' E 004°21'0 0.0
2017-Nov-12 00:28N 51°16' E 004°21'0 0.0
2017-Nov-11 23:46N 51°16' E 004°21'0 0.0
2017-Nov-11 23:19N 51°16' E 004°21'0 0.0
2017-Nov-11 22:58N 51°16' E 004°21'0 0.0
2017-Nov-11 22:19N 51°16' E 004°21'0 0.0
2017-Nov-11 21:58N 51°16' E 004°21'0 0.0
2017-Nov-11 21:25N 51°16' E 004°21'0 0.0
2017-Nov-11 20:58N 51°16' E 004°21'0 0.0
2017-Nov-11 20:22N 51°16' E 004°21'0 0.0
2017-Nov-11 19:55N 51°16' E 004°21'0 0.0
2017-Nov-11 19:19N 51°16' E 004°21'0 0.0
2017-Nov-11 18:55N 51°16' E 004°21'0 0.0
2017-Nov-11 18:22N 51°16' E 004°21'0 0.0
2017-Nov-11 17:55N 51°16' E 004°21'0 0.0
2017-Nov-11 17:16N 51°16' E 004°21'0 0.0
2017-Nov-11 16:40N 51°16' E 004°21'0 0.0
2017-Nov-11 16:16N 51°16' E 004°21'0 0.0
2017-Nov-11 15:52N 51°16' E 004°21'0 0.0
2017-Nov-11 15:25N 51°16' E 004°21'0 0.0
2017-Nov-11 14:46N 51°16' E 004°21'0 0.0
2017-Nov-11 14:28N 51°16' E 004°21'0 0.0
2017-Nov-11 13:58N 51°16' E 004°21'0 0.0
2017-Nov-11 13:13N 51°16' E 004°21'0 0.0
2017-Nov-11 12:58N 51°16' E 004°21'0 0.0
2017-Nov-11 12:28N 51°16' E 004°21'0 0.0
2017-Nov-11 11:49N 51°16' E 004°21'0 0.0
2017-Nov-11 11:19N 51°16' E 004°21'0 0.0
2017-Nov-11 10:58N 51°16' E 004°21'0 0.0
2017-Nov-11 10:16N 51°16' E 004°21'0 0.0
2017-Nov-11 09:28N 51°16' E 004°21'0 0.0
2017-Nov-11 08:58N 51°16' E 004°21'0 0.0
2017-Nov-11 08:28N 51°16' E 004°21'0 0.0
2017-Nov-11 07:58N 51°16' E 004°21'0 0.0
2017-Nov-11 07:28N 51°16' E 004°21'0 0.0
2017-Nov-11 06:55N 51°16' E 004°21'0 0.0
2017-Nov-11 06:28N 51°16' E 004°21'0 0.0
2017-Nov-11 05:55N 51°16' E 004°21'0 0.0
2017-Nov-11 05:28N 51°16' E 004°21'0 0.0
2017-Nov-11 04:58N 51°16' E 004°21'0 0.0
2017-Nov-11 04:25N 51°16' E 004°21'0 0.0
2017-Nov-11 03:58N 51°16' E 004°21'0 0.0
2017-Nov-11 03:13N 51°16' E 004°21'0 0.0
2017-Nov-11 02:52N 51°16' E 004°21'0 0.0
2017-Nov-11 02:28N 51°16' E 004°21'0 0.0
2017-Nov-11 01:58N 51°16' E 004°21'0 0.0
2017-Nov-11 01:16N 51°16' E 004°21'0 0.0
2017-Nov-11 00:49N 51°16' E 004°21'0 0.0
2017-Nov-11 00:25N 51°16' E 004°21'0 0.0
2017-Nov-10 23:55N 51°16' E 004°21'0 0.0
2017-Nov-10 22:58N 51°16' E 004°21'0 0.0
2017-Nov-10 22:25N 51°16' E 004°21'0 0.0
2017-Nov-10 21:37N 51°16' E 004°21'0 0.0
2017-Nov-10 21:13N 51°16' E 004°21'0 0.0
2017-Nov-10 20:55N 51°16' E 004°21'0 0.0
2017-Nov-10 20:28N 51°16' E 004°21'0 0.0
2017-Nov-10 19:43N 51°16' E 004°21'0 0.0
2017-Nov-10 19:28N 51°16' E 004°21'0 0.0
2017-Nov-10 18:43N 51°16' E 004°21'0 0.0
2017-Nov-10 18:28N 51°16' E 004°21'0 0.0
2017-Nov-10 17:49N 51°16' E 004°21'0 0.0
2017-Nov-10 17:19N 51°16' E 004°21'0 0.0
2017-Nov-10 16:49N 51°16' E 004°21'0 0.0
2017-Nov-10 16:07N 51°16' E 004°21'0 0.0
2017-Nov-10 15:43N 51°16' E 004°21'0 0.0
2017-Nov-10 15:28N 51°16' E 004°21'0 0.0
2017-Nov-10 14:52N 51°16' E 004°21'0 0.0
2017-Nov-10 14:13N 51°16' E 004°21'0 0.0
2017-Nov-10 13:58N 51°16' E 004°21'0 0.0
2017-Nov-10 13:07N 51°16' E 004°21'0 0.0
2017-Nov-10 12:58N 51°16' E 004°21'0 0.0
2017-Nov-10 12:28N 51°16' E 004°21'0 0.0
2017-Nov-10 11:55N 51°16' E 004°21'0 0.0
2017-Nov-10 11:22N 51°16' E 004°21'0 0.0
2017-Nov-10 10:58N 51°16' E 004°21'0 0.0
2017-Nov-10 10:16N 51°16' E 004°21'0 0.0
2017-Nov-10 09:58N 51°16' E 004°21'0 0.0
2017-Nov-10 09:25N 51°16' E 004°21'0 0.0
2017-Nov-10 08:58N 51°16' E 004°21'0 0.0
2017-Nov-10 08:28N 51°16' E 004°21'0 0.0
2017-Nov-10 07:43N 51°16' E 004°21'0 0.0
2017-Nov-10 07:13N 51°16' E 004°21'0 0.0
2017-Nov-10 06:43N 51°16' E 004°21'0 0.0
2017-Nov-10 06:28N 51°16' E 004°21'0 0.0
2017-Nov-10 05:55N 51°16' E 004°21'0 0.0
2017-Nov-10 05:25N 51°16' E 004°21'0 0.0
2017-Nov-10 04:49N 51°16' E 004°21'0 0.0
2017-Nov-10 04:25N 51°16' E 004°21'0 0.0
2017-Nov-10 03:55N 51°16' E 004°21'0 0.0
2017-Nov-10 03:28N 51°16' E 004°21'0 0.0
2017-Nov-10 02:31N 51°16' E 004°21'0 0.0
2017-Nov-10 02:25N 51°16' E 004°21'0 0.0
2017-Nov-10 01:55N 51°16' E 004°21'0 0.0
2017-Nov-10 00:58N 51°16' E 004°21'0 0.0
2017-Nov-10 00:25N 51°16' E 004°21'0 0.0
2017-Nov-09 23:46N 51°16' E 004°21'0 0.0
2017-Nov-09 23:28N 51°16' E 004°21'0 0.0
2017-Nov-09 22:58N 51°16' E 004°21'0 0.0
2017-Nov-09 22:25N 51°16' E 004°21'0 0.0
2017-Nov-09 21:55N 51°16' E 004°21'0 0.0
2017-Nov-09 21:13N 51°16' E 004°21'0 0.0
2017-Nov-09 20:58N 51°16' E 004°21'0 0.0
2017-Nov-09 20:25N 51°16' E 004°21'0 0.0
2017-Nov-09 19:55N 51°16' E 004°21'0 0.0
2017-Nov-09 19:13N 51°16' E 004°21'0 0.0
2017-Nov-09 18:52N 51°16' E 004°21'0 0.0
2017-Nov-09 18:28N 51°16' E 004°21'0 0.0
2017-Nov-09 17:52N 51°16' E 004°21'0 0.0
2017-Nov-09 17:25N 51°16' E 004°21'0 0.0
2017-Nov-09 16:49N 51°16' E 004°21'0 0.0
2017-Nov-09 16:07N 51°16' E 004°21'0 0.0
2017-Nov-09 15:55N 51°16' E 004°21'0 0.0
2017-Nov-09 15:25N 51°16' E 004°21'0 0.0
2017-Nov-09 14:52N 51°16' E 004°21'0 0.0
2017-Nov-09 13:58N 51°16' E 004°21'0 0.0
2017-Nov-09 13:19N 51°16' E 004°21'0 0.0
2017-Nov-09 12:49N 51°16' E 004°21'0 0.0
2017-Nov-09 12:25N 51°16' E 004°21'0 0.0
2017-Nov-09 11:49N 51°16' E 004°21'0 0.0
2017-Nov-09 11:28N 51°16' E 004°21'0 0.0
2017-Nov-09 10:43N 51°16' E 004°21'0 0.0
2017-Nov-09 10:25N 51°16' E 004°21'0 0.0
2017-Nov-09 08:58N 51°16' E 004°21'0 0.0
2017-Nov-09 08:25N 51°16' E 004°21'0 0.0
2017-Nov-09 07:58N 51°16' E 004°21'0 0.0
2017-Nov-09 07:25N 51°16' E 004°21'0 0.0
2017-Nov-09 06:55N 51°16' E 004°21'0 0.0
2017-Nov-09 05:49N 51°16' E 004°21'0 0.0
2017-Nov-09 05:25N 51°16' E 004°21'0 0.0
2017-Nov-09 04:55N 51°16' E 004°21'0 0.0
2017-Nov-09 04:19N 51°16' E 004°21'0 0.0
2017-Nov-09 03:52N 51°16' E 004°21'0 0.0
2017-Nov-09 03:01N 51°16' E 004°21'0 0.0
2017-Nov-09 02:34N 51°16' E 004°21'0 0.0
2017-Nov-09 02:16N 51°16' E 004°21'0 0.0
2017-Nov-09 01:55N 51°16' E 004°21'0 0.0
2017-Nov-09 01:28N 51°16' E 004°21'0 0.0
2017-Nov-09 00:55N 51°16' E 004°21'0 0.0
2017-Nov-09 00:22N 51°16' E 004°21'0 0.0
2017-Nov-08 23:55N 51°16' E 004°21'0 0.0
2017-Nov-08 23:25N 51°16' E 004°21'0 0.0
2017-Nov-08 22:52N 51°16' E 004°21'0 0.0
2017-Nov-08 22:28N 51°16' E 004°21'0 0.0
2017-Nov-08 21:55N 51°16' E 004°21'0 0.0
2017-Nov-08 21:19N 51°16' E 004°21'0 0.0
2017-Nov-08 20:58N 51°16' E 004°21'0 0.0
2017-Nov-08 20:25N 51°16' E 004°21'0 0.0
2017-Nov-08 19:37N 51°16' E 004°21'0 0.0
2017-Nov-08 19:25N 51°16' E 004°21'0 0.0
2017-Nov-08 18:55N 51°16' E 004°21'0 0.0
2017-Nov-08 18:30N 51°16' E 004°21'1 1.2
2017-Nov-08 18:00N 51°17' E 004°21'3 6.6
2017-Nov-08 17:30N 51°20' E 004°18'1 2.4
2017-Nov-08 17:00N 51°21' E 004°17'  
Track history (hours):
 
Tides and Currents Weather Stations Pressure Air Temp Water Temp Dewpoint Dewpoint Depression Visibility Wind Speed Wind Dir Waves Ship Positions

Uacc Ibn Al Haitham

Last reported at 2017-Nov-18 16:39 UTC. Time now 2017-Nov-20 12:11 UTC.
Position N 36°00' W 005°15'.

Length 228 m; draft 12.9 m.

Type: Tanker. MMSI: 249580000.

Date/timePositionNaut miles runAvg speedWind from/ knotsBaromVisibWave heightAir tempDewpointWater temp
2017-Nov-18 16:39N 36°00' W 005°15'212.5
2017-Nov-18 16:30N 35°60' W 005°18'712.4
2017-Nov-18 15:56N 35°58' W 005°26'18211.1
2017-Nov-17 23:35N 36°28' W 009°09'211.3
2017-Nov-17 23:27N 36°28' W 009°11'511.3
2017-Nov-17 23:00N 36°29' W 009°17'1211.0
2017-Nov-17 21:55N 36°37' W 009°28'3211.2
2017-Nov-17 19:02N 37°07' W 009°44'411.6
2017-Nov-17 18:40N 37°11' W 009°45'1111.7
2017-Nov-17 17:41N 37°22' W 009°48'212.0
2017-Nov-17 17:30N 37°24' W 009°49'612.1
2017-Nov-17 17:00N 37°30' W 009°51'611.8
2017-Nov-17 16:30N 37°36' W 009°53'611.7
2017-Nov-17 15:58N 37°42' W 009°54'712.0
2017-Nov-17 15:23N 37°49' W 009°56'511.7
2017-Nov-17 14:58N 37°53' W 009°58'511.6
2017-Nov-17 14:30N 37°59' W 009°60'611.8
2017-Nov-17 14:00N 38°04' W 010°01'611.7
2017-Nov-17 13:30N 38°10' W 010°03'5211.5
2017-Nov-17 08:56N 39°02' W 010°12'1411.8
2017-Nov-17 07:44N 39°16' W 010°13'  
2017-Nov-14 17:05N 49°49' W 003°26'710.1
2017-Nov-14 16:23N 49°53' W 003°17'4 9.9
2017-Nov-14 16:00N 49°55' W 003°12'5 9.9
2017-Nov-14 15:30N 49°57' W 003°05'5 9.8
2017-Nov-14 15:00N 49°59' W 002°58'1010.4
2017-Nov-14 14:05N 50°02' W 002°44'210.9
2017-Nov-14 13:56N 50°02' W 002°41'9511.8
2017-Nov-14 05:53N 50°28' W 000°18'5 9.4
2017-Nov-14 05:22N 50°29' W 000°11'4 9.5
2017-Nov-14 04:54N 50°30' W 000°04'4 9.6
2017-Nov-14 04:30N 50°31' E 000°01'5 9.9
2017-Nov-14 04:00N 50°32' E 000°09'510.3
2017-Nov-14 03:30N 50°34' E 000°17'610.9
2017-Nov-14 02:59N 50°35' E 000°25'611.4
2017-Nov-14 02:30N 50°37' E 000°34'611.8
2017-Nov-14 02:00N 50°40' E 000°42'612.0
2017-Nov-14 01:30N 50°43' E 000°50'612.0
2017-Nov-14 01:00N 50°46' E 000°58'611.9
2017-Nov-14 00:30N 50°50' E 001°04'1311.4
2017-Nov-13 23:20N 50°60' E 001°19'410.6
2017-Nov-13 23:00N 51°02' E 001°23'510.3
2017-Nov-13 22:30N 51°05' E 001°30'5 9.6
2017-Nov-13 22:00N 51°08' E 001°35'104 5.2
2017-Nov-13 01:52N 51°16' E 004°21'0 0.0
2017-Nov-13 01:28N 51°16' E 004°21'0 0.0
2017-Nov-13 00:58N 51°16' E 004°21'0 0.0
2017-Nov-13 00:28N 51°16' E 004°21'0 0.0
2017-Nov-12 23:28N 51°16' E 004°21'0 0.0
2017-Nov-12 22:58N 51°16' E 004°21'0 0.0
2017-Nov-12 22:28N 51°16' E 004°21'0 0.0
2017-Nov-12 21:55N 51°16' E 004°21'0 0.0
2017-Nov-12 21:19N 51°16' E 004°21'0 0.0
2017-Nov-12 20:58N 51°16' E 004°21'0 0.0
2017-Nov-12 20:19N 51°16' E 004°21'0 0.0
2017-Nov-12 19:55N 51°16' E 004°21'0 0.0
2017-Nov-12 19:25N 51°16' E 004°21'0 0.0
2017-Nov-12 18:52N 51°16' E 004°21'0 0.0
2017-Nov-12 18:22N 51°16' E 004°21'0 0.0
2017-Nov-12 17:49N 51°16' E 004°21'0 0.0
2017-Nov-12 17:28N 51°16' E 004°21'0 0.0
2017-Nov-12 16:28N 51°16' E 004°21'0 0.0
2017-Nov-12 15:58N 51°16' E 004°21'0 0.0
2017-Nov-12 15:28N 51°16' E 004°21'0 0.0
2017-Nov-12 14:40N 51°16' E 004°21'0 0.0
2017-Nov-12 14:13N 51°16' E 004°21'0 0.0
2017-Nov-12 13:49N 51°16' E 004°21'0 0.0
2017-Nov-12 13:25N 51°16' E 004°21'0 0.0
2017-Nov-12 12:25N 51°16' E 004°21'0 0.0
2017-Nov-12 11:43N 51°16' E 004°21'0 0.0
2017-Nov-12 11:28N 51°16' E 004°21'0 0.0
2017-Nov-12 10:55N 51°16' E 004°21'0 0.0
2017-Nov-12 10:19N 51°16' E 004°21'0 0.0
2017-Nov-12 09:52N 51°16' E 004°21'0 0.0
2017-Nov-12 09:28N 51°16' E 004°21'0 0.0
2017-Nov-12 08:40N 51°16' E 004°21'0 0.0
2017-Nov-12 08:28N 51°16' E 004°21'0 0.0
2017-Nov-12 07:55N 51°16' E 004°21'0 0.0
2017-Nov-12 07:19N 51°16' E 004°21'0 0.0
2017-Nov-12 06:55N 51°16' E 004°21'0 0.0
2017-Nov-12 06:25N 51°16' E 004°21'0 0.0
2017-Nov-12 05:46N 51°16' E 004°21'0 0.0
2017-Nov-12 05:25N 51°16' E 004°21'0 0.0
2017-Nov-12 04:58N 51°16' E 004°21'0 0.0
2017-Nov-12 04:25N 51°16' E 004°21'0 0.0
2017-Nov-12 03:55N 51°16' E 004°21'0 0.0
2017-Nov-12 03:25N 51°16' E 004°21'0 0.0
2017-Nov-12 02:52N 51°16' E 004°21'0 0.0
2017-Nov-12 02:13N 51°16' E 004°21'0 0.0
2017-Nov-12 01:55N 51°16' E 004°21'0 0.0
2017-Nov-12 01:28N 51°16' E 004°21'0 0.0
2017-Nov-12 00:58N 51°16' E 004°21'0 0.0
2017-Nov-12 00:28N 51°16' E 004°21'0 0.0
2017-Nov-11 23:46N 51°16' E 004°21'0 0.0
2017-Nov-11 23:19N 51°16' E 004°21'0 0.0
2017-Nov-11 22:58N 51°16' E 004°21'0 0.0
2017-Nov-11 22:19N 51°16' E 004°21'0 0.0
2017-Nov-11 21:58N 51°16' E 004°21'0 0.0
2017-Nov-11 21:25N 51°16' E 004°21'0 0.0
2017-Nov-11 20:58N 51°16' E 004°21'0 0.0
2017-Nov-11 20:22N 51°16' E 004°21'0 0.0
2017-Nov-11 19:55N 51°16' E 004°21'0 0.0
2017-Nov-11 19:19N 51°16' E 004°21'0 0.0
2017-Nov-11 18:55N 51°16' E 004°21'0 0.0
2017-Nov-11 18:22N 51°16' E 004°21'0 0.0
2017-Nov-11 17:55N 51°16' E 004°21'0 0.0
2017-Nov-11 17:16N 51°16' E 004°21'0 0.0
2017-Nov-11 16:40N 51°16' E 004°21'0 0.0
2017-Nov-11 16:16N 51°16' E 004°21'0 0.0
2017-Nov-11 15:52N 51°16' E 004°21'0 0.0
2017-Nov-11 15:25N 51°16' E 004°21'0 0.0
2017-Nov-11 14:46N 51°16' E 004°21'0 0.0
2017-Nov-11 14:28N 51°16' E 004°21'0 0.0
2017-Nov-11 13:58N 51°16' E 004°21'0 0.0
2017-Nov-11 13:13N 51°16' E 004°21'0 0.0
2017-Nov-11 12:58N 51°16' E 004°21'0 0.0
2017-Nov-11 12:28N 51°16' E 004°21'0 0.0
2017-Nov-11 11:49N 51°16' E 004°21'0 0.0
2017-Nov-11 11:19N 51°16' E 004°21'0 0.0
2017-Nov-11 10:58N 51°16' E 004°21'0 0.0
2017-Nov-11 10:16N 51°16' E 004°21'0 0.0
2017-Nov-11 09:28N 51°16' E 004°21'0 0.0
2017-Nov-11 08:58N 51°16' E 004°21'0 0.0
2017-Nov-11 08:28N 51°16' E 004°21'0 0.0
2017-Nov-11 07:58N 51°16' E 004°21'0 0.0
2017-Nov-11 07:28N 51°16' E 004°21'0 0.0
2017-Nov-11 06:55N 51°16' E 004°21'0 0.0
2017-Nov-11 06:28N 51°16' E 004°21'0 0.0
2017-Nov-11 05:55N 51°16' E 004°21'0 0.0
2017-Nov-11 05:28N 51°16' E 004°21'0 0.0
2017-Nov-11 04:58N 51°16' E 004°21'0 0.0
2017-Nov-11 04:25N 51°16' E 004°21'0 0.0
2017-Nov-11 03:58N 51°16' E 004°21'0 0.0
2017-Nov-11 03:13N 51°16' E 004°21'0 0.0
2017-Nov-11 02:52N 51°16' E 004°21'0 0.0
2017-Nov-11 02:28N 51°16' E 004°21'0 0.0
2017-Nov-11 01:58N 51°16' E 004°21'0 0.0
2017-Nov-11 01:16N 51°16' E 004°21'0 0.0
2017-Nov-11 00:49N 51°16' E 004°21'0 0.0
2017-Nov-11 00:25N 51°16' E 004°21'0 0.0
2017-Nov-10 23:55N 51°16' E 004°21'0 0.0
2017-Nov-10 22:58N 51°16' E 004°21'0 0.0
2017-Nov-10 22:25N 51°16' E 004°21'0 0.0
2017-Nov-10 21:37N 51°16' E 004°21'0 0.0
2017-Nov-10 21:13N 51°16' E 004°21'0 0.0
2017-Nov-10 20:55N 51°16' E 004°21'0 0.0
2017-Nov-10 20:28N 51°16' E 004°21'0 0.0
2017-Nov-10 19:43N 51°16' E 004°21'0 0.0
2017-Nov-10 19:28N 51°16' E 004°21'0 0.0
2017-Nov-10 18:43N 51°16' E 004°21'0 0.0
2017-Nov-10 18:28N 51°16' E 004°21'0 0.0
2017-Nov-10 17:49N 51°16' E 004°21'0 0.0
2017-Nov-10 17:19N 51°16' E 004°21'0 0.0
2017-Nov-10 16:49N 51°16' E 004°21'0 0.0
2017-Nov-10 16:07N 51°16' E 004°21'0 0.0
2017-Nov-10 15:43N 51°16' E 004°21'0 0.0
2017-Nov-10 15:28N 51°16' E 004°21'0 0.0
2017-Nov-10 14:52N 51°16' E 004°21'0 0.0
2017-Nov-10 14:13N 51°16' E 004°21'0 0.0
2017-Nov-10 13:58N 51°16' E 004°21'0 0.0
2017-Nov-10 13:07N 51°16' E 004°21'0 0.0
2017-Nov-10 12:58N 51°16' E 004°21'0 0.0
2017-Nov-10 12:28N 51°16' E 004°21'0 0.0
2017-Nov-10 11:55N 51°16' E 004°21'0 0.0
2017-Nov-10 11:22N 51°16' E 004°21'0 0.0
2017-Nov-10 10:58N 51°16' E 004°21'0 0.0
2017-Nov-10 10:16N 51°16' E 004°21'0 0.0
2017-Nov-10 09:58N 51°16' E 004°21'0 0.0
2017-Nov-10 09:25N 51°16' E 004°21'0 0.0
2017-Nov-10 08:58N 51°16' E 004°21'0 0.0
2017-Nov-10 08:28N 51°16' E 004°21'0 0.0
2017-Nov-10 07:43N 51°16' E 004°21'0 0.0
2017-Nov-10 07:13N 51°16' E 004°21'0 0.0
2017-Nov-10 06:43N 51°16' E 004°21'0 0.0
2017-Nov-10 06:28N 51°16' E 004°21'0 0.0
2017-Nov-10 05:55N 51°16' E 004°21'0 0.0
2017-Nov-10 05:25N 51°16' E 004°21'0 0.0
2017-Nov-10 04:49N 51°16' E 004°21'0 0.0
2017-Nov-10 04:25N 51°16' E 004°21'0 0.0
2017-Nov-10 03:55N 51°16' E 004°21'0 0.0
2017-Nov-10 03:28N 51°16' E 004°21'0 0.0
2017-Nov-10 02:31N 51°16' E 004°21'0 0.0
2017-Nov-10 02:25N 51°16' E 004°21'0 0.0
2017-Nov-10 01:55N 51°16' E 004°21'0 0.0
2017-Nov-10 00:58N 51°16' E 004°21'0 0.0
2017-Nov-10 00:25N 51°16' E 004°21'0 0.0
2017-Nov-09 23:46N 51°16' E 004°21'0 0.0
2017-Nov-09 23:28N 51°16' E 004°21'0 0.0
2017-Nov-09 22:58N 51°16' E 004°21'0 0.0
2017-Nov-09 22:25N 51°16' E 004°21'0 0.0
2017-Nov-09 21:55N 51°16' E 004°21'0 0.0
2017-Nov-09 21:13N 51°16' E 004°21'0 0.0
2017-Nov-09 20:58N 51°16' E 004°21'0 0.0
2017-Nov-09 20:25N 51°16' E 004°21'0 0.0
2017-Nov-09 19:55N 51°16' E 004°21'0 0.0
2017-Nov-09 19:13N 51°16' E 004°21'0 0.0
2017-Nov-09 18:52N 51°16' E 004°21'0 0.0
2017-Nov-09 18:28N 51°16' E 004°21'0 0.0
2017-Nov-09 17:52N 51°16' E 004°21'0 0.0
2017-Nov-09 17:25N 51°16' E 004°21'0 0.0
2017-Nov-09 16:49N 51°16' E 004°21'0 0.0
2017-Nov-09 16:07N 51°16' E 004°21'0 0.0
2017-Nov-09 15:55N 51°16' E 004°21'0 0.0
2017-Nov-09 15:25N 51°16' E 004°21'0 0.0
2017-Nov-09 14:52N 51°16' E 004°21'0 0.0
2017-Nov-09 13:58N 51°16' E 004°21'0 0.0
2017-Nov-09 13:19N 51°16' E 004°21'0 0.0
2017-Nov-09 12:49N 51°16' E 004°21'0 0.0
2017-Nov-09 12:25N 51°16' E 004°21'0 0.0
2017-Nov-09 11:49N 51°16' E 004°21'0 0.0
2017-Nov-09 11:28N 51°16' E 004°21'0 0.0
2017-Nov-09 10:43N 51°16' E 004°21'0 0.0
2017-Nov-09 10:25N 51°16' E 004°21'0 0.0
2017-Nov-09 08:58N 51°16' E 004°21'0 0.0
2017-Nov-09 08:25N 51°16' E 004°21'0 0.0
2017-Nov-09 07:58N 51°16' E 004°21'0 0.0
2017-Nov-09 07:25N 51°16' E 004°21'0 0.0
2017-Nov-09 06:55N 51°16' E 004°21'0 0.0
2017-Nov-09 05:49N 51°16' E 004°21'0 0.0
2017-Nov-09 05:25N 51°16' E 004°21'0 0.0
2017-Nov-09 04:55N 51°16' E 004°21'0 0.0
2017-Nov-09 04:19N 51°16' E 004°21'0 0.0
2017-Nov-09 03:52N 51°16' E 004°21'0 0.0
2017-Nov-09 03:01N 51°16' E 004°21'0 0.0
2017-Nov-09 02:34N 51°16' E 004°21'0 0.0
2017-Nov-09 02:16N 51°16' E 004°21'0 0.0
2017-Nov-09 01:55N 51°16' E 004°21'0 0.0
2017-Nov-09 01:28N 51°16' E 004°21'0 0.0
2017-Nov-09 00:55N 51°16' E 004°21'0 0.0
2017-Nov-09 00:22N 51°16' E 004°21'0 0.0
2017-Nov-08 23:55N 51°16' E 004°21'0 0.0
2017-Nov-08 23:25N 51°16' E 004°21'0 0.0
2017-Nov-08 22:52N 51°16' E 004°21'0 0.0
2017-Nov-08 22:28N 51°16' E 004°21'0 0.0
2017-Nov-08 21:55N 51°16' E 004°21'0 0.0
2017-Nov-08 21:19N 51°16' E 004°21'0 0.0
2017-Nov-08 20:58N 51°16' E 004°21'0 0.0
2017-Nov-08 20:25N 51°16' E 004°21'0 0.0
2017-Nov-08 19:37N 51°16' E 004°21'0 0.0
2017-Nov-08 19:25N 51°16' E 004°21'0 0.0
2017-Nov-08 18:55N 51°16' E 004°21'0 0.0
2017-Nov-08 18:30N 51°16' E 004°21'1 1.2
2017-Nov-08 18:00N 51°17' E 004°21'3 6.6
2017-Nov-08 17:30N 51°20' E 004°18'1 2.4
2017-Nov-08 17:00N 51°21' E 004°17'  

Dump ship's entire track history